Time;durP1;ratioP1;P1;durP2;ratioP2;P2;SDS_P1;SDS_P2;PMS_P1;PMS_P2;Temp;Humidity;BMP_temperature;BMP_pressure;BME280_temperature;BME280_humidity;BME280_pressure;Samples;Min_cycle;Max_cycle;Signal;HPM_P1;HPM_P2
2023/12/28 00:00:58;;;;;;;0.95;0.90;;;9.20;99.90;;;;;;5105638;27;20039;-83
2023/12/28 00:03:25;;;;;;;0.40;0.40;;;9.20;99.90;;;;;;5122995;27;20500;-82
2023/12/28 00:05:50;;;;;;;0.88;0.88;;;9.20;99.90;;;;;;5125156;27;20077;-81
2023/12/28 00:08:17;;;;;;;0.50;0.50;;;9.20;99.90;;;;;;5107186;27;20043;-78
2023/12/28 00:10:42;;;;;;;0.52;0.52;;;9.20;99.90;;;;;;5125240;27;20053;-79
2023/12/28 00:13:08;;;;;;;0.68;0.68;;;9.20;99.90;;;;;;5107084;27;20039;-78
2023/12/28 00:15:33;;;;;;;0.75;0.75;;;9.20;99.90;;;;;;5125863;27;20035;-79
2023/12/28 00:17:59;;;;;;;0.45;0.45;;;9.10;99.90;;;;;;5108685;27;20034;-81
2023/12/28 00:20:25;;;;;;;0.40;0.40;;;9.10;99.90;;;;;;5126381;27;20107;-81
2023/12/28 00:22:50;;;;;;;0.50;0.50;;;9.00;99.90;;;;;;5107941;27;20087;-80
2023/12/28 00:25:16;;;;;;;0.60;0.60;;;9.10;99.90;;;;;;5124005;27;20101;-83
2023/12/28 00:27:42;;;;;;;1.02;0.93;;;9.10;99.90;;;;;;5127350;27;20324;-80
2023/12/28 00:30:08;;;;;;;0.50;0.50;;;9.10;99.90;;;;;;5124623;27;20042;-81
2023/12/28 00:32:35;;;;;;;0.50;0.50;;;9.10;99.90;;;;;;5123580;27;20103;-82
2023/12/28 00:35:00;;;;;;;0.40;0.40;;;9.10;99.90;;;;;;5125410;27;20039;-79
2023/12/28 00:37:26;;;;;;;0.63;0.63;;;9.10;99.90;;;;;;5123062;27;20087;-82
2023/12/28 00:39:51;;;;;;;0.60;0.60;;;9.10;99.90;;;;;;5128338;28;20050;-83
2023/12/28 00:42:19;;;;;;;0.63;0.63;;;9.10;99.90;;;;;;5113156;27;20082;-78
2023/12/28 00:44:46;;;;;;;0.60;0.60;;;9.00;99.90;;;;;;5111795;28;20344;-80
2023/12/28 00:47:11;;;;;;;0.50;0.50;;;9.00;99.90;;;;;;5129953;27;20035;-78
2023/12/28 00:49:37;;;;;;;0.45;0.45;;;9.00;99.90;;;;;;5114258;28;20043;-80
2023/12/28 00:52:03;;;;;;;0.50;0.50;;;9.00;99.90;;;;;;5113251;27;20035;-80
2023/12/28 00:54:29;;;;;;;4.45;2.05;;;9.00;99.90;;;;;;5132849;27;20403;-82
2023/12/28 00:56:55;;;;;;;0.40;0.40;;;9.00;99.90;;;;;;5132031;27;20396;-79
2023/12/28 00:59:20;;;;;;;1.05;1.05;;;9.00;99.90;;;;;;5131900;27;20035;-82
2023/12/28 01:01:46;;;;;;;0.30;0.30;;;9.00;99.90;;;;;;5133456;27;20047;-77
2023/12/28 01:04:12;;;;;;;0.40;0.40;;;9.10;99.90;;;;;;5119097;27;20484;-81
2023/12/28 01:06:37;;;;;;;0.45;0.45;;;9.00;99.90;;;;;;5132725;27;20047;-81
2023/12/28 01:09:03;;;;;;;0.50;0.50;;;9.10;99.90;;;;;;5130870;27;20051;-82
2023/12/28 01:11:29;;;;;;;0.40;0.40;;;9.10;99.90;;;;;;5112682;27;20043;-80
2023/12/28 01:13:57;;;;;;;1.00;1.00;;;9.20;99.90;;;;;;5134158;27;20031;-78
2023/12/28 01:16:23;;;;;;;0.68;0.68;;;9.20;99.90;;;;;;5136992;27;20043;-81
2023/12/28 01:18:48;;;;;;;1.27;1.02;;;9.10;99.90;;;;;;5134161;27;20112;-80
2023/12/28 01:21:14;;;;;;;0.88;0.88;;;9.10;99.90;;;;;;5135477;27;20046;-80
2023/12/28 01:23:40;;;;;;;0.40;0.40;;;9.10;99.90;;;;;;5133771;27;20078;-82
2023/12/28 01:26:11;;;;;;;0.63;0.63;;;9.20;99.90;;;;;;5112466;27;20086;-80
2023/12/28 01:28:37;;;;;;;0.40;0.40;;;9.10;99.90;;;;;;5131756;27;20548;-79
2023/12/28 01:31:04;;;;;;;1.10;1.08;;;9.00;99.90;;;;;;5115673;27;20050;-81
2023/12/28 01:33:29;;;;;;;0.30;0.30;;;9.10;99.90;;;;;;5120573;27;20037;-80
2023/12/28 01:35:55;;;;;;;0.40;0.40;;;9.00;99.90;;;;;;5133153;27;20039;-81
2023/12/28 01:38:21;;;;;;;0.40;0.40;;;9.00;99.90;;;;;;5093822;27;20352;-80
2023/12/28 01:40:46;;;;;;;0.40;0.40;;;8.90;99.90;;;;;;5133866;27;20050;-80
2023/12/28 01:43:12;;;;;;;0.40;0.40;;;8.80;99.90;;;;;;5115919;27;20473;-77
2023/12/28 01:45:37;;;;;;;0.65;0.65;;;8.80;99.90;;;;;;5114277;27;20054;-78
2023/12/28 01:48:04;;;;;;;0.50;0.50;;;8.80;99.90;;;;;;5117683;27;20411;-79
2023/12/28 01:50:31;;;;;;;0.57;0.57;;;8.80;99.90;;;;;;5116099;27;20344;-76
2023/12/28 01:53:00;;;;;;;0.45;0.45;;;8.70;99.90;;;;;;5133411;27;20034;-81
2023/12/28 01:55:27;;;;;;;6.32;1.20;;;8.80;99.90;;;;;;5134994;27;20064;-80
2023/12/28 01:57:54;;;;;;;0.47;0.47;;;8.80;99.90;;;;;;5117139;27;20047;-81
2023/12/28 02:00:22;;;;;;;0.73;0.55;;;8.80;99.90;;;;;;5129875;27;20043;-80
2023/12/28 02:02:48;;;;;;;0.40;0.40;;;8.80;99.90;;;;;;5140103;27;20043;-82
2023/12/28 02:05:14;;;;;;;;;;;8.80;99.90;;;;;;5133536;27;20054;-82
2023/12/28 02:07:40;;;;;;;0.43;0.43;;;8.80;99.90;;;;;;5132254;27;20029;-79
2023/12/28 02:10:07;;;;;;;;;;;8.70;99.90;;;;;;5132406;27;20110;-79
2023/12/28 02:12:33;;;;;;;0.93;0.93;;;8.70;99.90;;;;;;5131580;27;19935;-83
2023/12/28 02:14:59;;;;;;;0.47;0.47;;;8.80;99.90;;;;;;5114660;27;20048;-79
2023/12/28 02:17:34;;;;;;;0.50;0.50;;;8.90;99.90;;;;;;5131337;27;20043;-79
2023/12/28 02:20:05;;;;;;;0.40;0.40;;;8.90;99.90;;;;;;5135811;27;20035;-77
2023/12/28 02:22:32;;;;;;;0.47;0.47;;;8.90;99.90;;;;;;5130007;27;20035;-81
2023/12/28 02:25:07;;;;;;;2.45;1.92;;;9.00;99.90;;;;;;5132173;27;20051;-81
2023/12/28 02:27:44;;;;;;;0.40;0.40;;;8.80;99.90;;;;;;5113763;27;20054;-81
2023/12/28 02:30:10;;;;;;;0.75;0.75;;;8.90;99.90;;;;;;5127776;27;20518;-82
2023/12/28 02:33:15;;;;;;;0.47;0.47;;;8.70;99.90;;;;;;5114318;27;20031;-80
2023/12/28 02:35:50;;;;;;;2.00;1.83;;;8.70;99.90;;;;;;5133730;27;20122;-79
2023/12/28 02:38:17;;;;;;;1.10;1.10;;;8.70;99.90;;;;;;5133586;27;20453;-79
2023/12/28 02:40:44;;;;;;;1.45;1.35;;;8.80;99.90;;;;;;5132863;27;20519;-77
2023/12/28 02:43:10;;;;;;;0.40;0.40;;;8.60;99.90;;;;;;5113880;27;20070;-81
2023/12/28 02:45:37;;;;;;;1.38;1.38;;;8.70;99.90;;;;;;5134847;27;20054;-79
2023/12/28 02:48:04;;;;;;;0.90;0.90;;;8.80;99.90;;;;;;5131752;27;20422;-79
2023/12/28 02:50:30;;;;;;;0.30;0.30;;;8.80;99.90;;;;;;5130765;27;20129;-80
2023/12/28 02:52:56;;;;;;;0.60;0.60;;;8.90;99.90;;;;;;5132628;27;20122;-77
2023/12/28 02:55:23;;;;;;;0.30;0.30;;;9.00;99.90;;;;;;5134634;27;20066;-82
2023/12/28 02:57:50;;;;;;;0.52;0.52;;;8.90;99.90;;;;;;5133790;27;20094;-78
2023/12/28 03:00:16;;;;;;;0.50;0.50;;;8.90;99.90;;;;;;5133506;27;20067;-79
2023/12/28 03:02:42;;;;;;;;;;;9.00;99.90;;;;;;5132505;27;20072;-80
2023/12/28 03:05:08;;;;;;;0.40;0.40;;;9.00;99.90;;;;;;5137902;27;19927;-79
2023/12/28 03:07:34;;;;;;;;;;;9.10;99.90;;;;;;5136603;27;20475;-78
2023/12/28 03:10:02;;;;;;;0.47;0.47;;;9.10;99.90;;;;;;5137960;27;19965;-80
2023/12/28 03:12:29;;;;;;;0.38;0.38;;;9.20;99.90;;;;;;5114693;27;20516;-79
2023/12/28 03:14:55;;;;;;;0.70;0.70;;;9.30;99.90;;;;;;5130345;27;20104;-82
2023/12/28 03:17:20;;;;;;;0.40;0.40;;;9.30;99.90;;;;;;5132305;27;20088;-77
2023/12/28 03:19:46;;;;;;;0.30;0.30;;;9.40;99.90;;;;;;5132561;27;20499;-79
2023/12/28 03:22:12;;;;;;;0.40;0.40;;;9.50;99.90;;;;;;5130380;27;20051;-77
2023/12/28 03:24:38;;;;;;;0.40;0.40;;;9.60;99.90;;;;;;5133288;27;20099;-79
2023/12/28 03:27:07;;;;;;;;;;;9.60;99.90;;;;;;5129468;27;20179;-80
2023/12/28 03:29:33;;;;;;;1.85;1.75;;;9.50;99.90;;;;;;5119782;27;19939;-81
2023/12/28 03:32:00;;;;;;;0.30;0.30;;;9.50;99.90;;;;;;5131313;27;20290;-81
2023/12/28 03:34:26;;;;;;;0.40;0.40;;;9.70;99.90;;;;;;5129178;27;20035;-82
2023/12/28 03:36:53;;;;;;;0.73;0.73;;;9.70;99.90;;;;;;5114892;27;20031;-79
2023/12/28 03:39:19;;;;;;;0.40;0.40;;;9.70;99.90;;;;;;5130576;27;20118;-80
2023/12/28 03:41:52;;;;;;;0.40;0.40;;;9.70;99.90;;;;;;5130553;27;20567;-80
2023/12/28 03:44:19;;;;;;;0.95;0.77;;;9.80;99.90;;;;;;5131431;27;20050;-79
2023/12/28 03:46:45;;;;;;;0.73;0.73;;;9.80;99.90;;;;;;5113215;27;20043;-80
2023/12/28 03:49:10;;;;;;;0.60;0.60;;;9.90;99.90;;;;;;5116644;27;20038;-79
2023/12/28 03:51:36;;;;;;;0.40;0.40;;;9.90;99.90;;;;;;5131177;27;20042;-79
2023/12/28 03:54:03;;;;;;;0.80;0.80;;;9.90;99.90;;;;;;5128124;27;20039;-80
2023/12/28 03:56:30;;;;;;;0.70;0.70;;;9.80;99.90;;;;;;5130420;27;20046;-80
2023/12/28 03:58:56;;;;;;;1.45;0.68;;;9.80;99.90;;;;;;5112000;27;20046;-81
2023/12/28 04:01:22;;;;;;;0.40;0.40;;;9.80;99.90;;;;;;5134953;27;20041;-79
2023/12/28 04:03:48;;;;;;;0.50;0.50;;;9.90;99.90;;;;;;5109510;27;20396;-81
2023/12/28 04:06:14;;;;;;;0.40;0.40;;;9.90;99.90;;;;;;5132227;27;20043;-82
2023/12/28 04:08:40;;;;;;;;;;;9.90;99.90;;;;;;5111627;27;20049;-79
2023/12/28 04:11:06;;;;;;;0.40;0.40;;;9.90;99.90;;;;;;5129675;27;19946;-79
2023/12/28 04:13:32;;;;;;;0.60;0.60;;;9.90;99.90;;;;;;5116604;27;20032;-79
2023/12/28 04:15:58;;;;;;;0.40;0.40;;;9.90;99.90;;;;;;5132113;27;20495;-81
2023/12/28 04:18:23;;;;;;;0.30;0.30;;;9.90;99.90;;;;;;5129081;27;20031;-77
2023/12/28 04:20:49;;;;;;;0.35;0.35;;;10.00;99.90;;;;;;5129935;27;20043;-79
2023/12/28 04:23:15;;;;;;;0.40;0.40;;;10.00;99.90;;;;;;5130104;27;20043;-79
2023/12/28 04:25:41;;;;;;;0.65;0.65;;;10.00;99.90;;;;;;5129953;27;20074;-78
2023/12/28 04:28:07;;;;;;;0.55;0.55;;;10.10;99.90;;;;;;5127807;27;20516;-78
2023/12/28 04:30:33;;;;;;;0.47;0.47;;;10.10;99.90;;;;;;5113373;27;20147;-78
2023/12/28 04:32:58;;;;;;;1.15;1.08;;;10.10;99.90;;;;;;5118341;27;20030;-77
2023/12/28 04:35:26;;;;;;;0.68;0.68;;;10.10;99.90;;;;;;5111464;28;20047;-80
2023/12/28 04:37:51;;;;;;;0.30;0.30;;;10.10;99.90;;;;;;5129290;27;20118;-84
2023/12/28 04:40:17;;;;;;;0.30;0.30;;;10.20;99.90;;;;;;5130808;27;20130;-76
2023/12/28 04:42:44;;;;;;;1.55;0.50;;;10.20;99.90;;;;;;5129216;27;20035;-77
2023/12/28 04:45:10;;;;;;;0.40;0.40;;;10.20;99.90;;;;;;5128242;27;20043;-78
2023/12/28 04:47:36;;;;;;;1.02;0.95;;;10.20;99.90;;;;;;5129298;27;20533;-78
2023/12/28 04:50:03;;;;;;;0.47;0.47;;;10.30;99.90;;;;;;5129113;27;20156;-79
2023/12/28 04:52:29;;;;;;;0.35;0.35;;;10.20;99.90;;;;;;5130414;27;20039;-77
2023/12/28 04:54:55;;;;;;;0.40;0.40;;;10.20;99.90;;;;;;5094207;28;20039;-78
2023/12/28 04:57:24;;;;;;;;;;;10.30;99.90;;;;;;5141196;27;20061;-77
2023/12/28 04:59:50;;;;;;;0.52;0.52;;;10.20;99.90;;;;;;5114139;28;20292;-82
2023/12/28 05:02:16;;;;;;;0.50;0.50;;;10.30;99.90;;;;;;5132657;27;20051;-79
2023/12/28 05:04:41;;;;;;;0.30;0.30;;;10.30;99.90;;;;;;5128856;27;20530;-80
2023/12/28 05:07:07;;;;;;;0.40;0.40;;;10.40;99.90;;;;;;5094002;28;20043;-78
2023/12/28 05:09:33;;;;;;;0.30;0.30;;;10.40;99.90;;;;;;5128878;27;20059;-77
2023/12/28 05:11:59;;;;;;;0.38;0.38;;;10.40;99.90;;;;;;5127110;28;20072;-80
2023/12/28 05:14:24;;;;;;;0.40;0.40;;;10.40;99.90;;;;;;5130360;27;20046;-77
2023/12/28 05:16:50;;;;;;;0.40;0.40;;;10.40;99.90;;;;;;5114720;27;20092;-81
2023/12/28 05:19:16;;;;;;;0.38;0.38;;;10.30;99.90;;;;;;5136231;27;20039;-81
2023/12/28 05:21:42;;;;;;;1.80;1.30;;;10.20;99.90;;;;;;5133423;27;20085;-79
2023/12/28 05:24:07;;;;;;;3.95;2.17;;;10.20;99.90;;;;;;5128982;27;20564;-76
2023/12/28 05:26:33;;;;;;;0.32;0.32;;;10.30;99.90;;;;;;5130214;27;20043;-82
2023/12/28 05:28:59;;;;;;;0.30;0.30;;;10.30;99.90;;;;;;5128514;28;20481;-76
2023/12/28 05:31:25;;;;;;;0.30;0.30;;;10.30;99.90;;;;;;5131188;27;20082;-79
2023/12/28 05:33:50;;;;;;;0.40;0.40;;;10.30;99.90;;;;;;5130111;27;20103;-83
2023/12/28 05:36:17;;;;;;;0.60;0.60;;;10.30;99.90;;;;;;5112727;28;20070;-81
2023/12/28 05:38:43;;;;;;;0.40;0.40;;;10.20;99.90;;;;;;5132370;27;20506;-82
2023/12/28 05:41:12;;;;;;;0.90;0.90;;;10.30;99.90;;;;;;5130025;27;20042;-79
2023/12/28 05:43:38;;;;;;;0.43;0.43;;;10.30;99.90;;;;;;5120232;27;20057;-78
2023/12/28 05:46:04;;;;;;;0.90;0.90;;;10.30;99.90;;;;;;5120937;27;20121;-80
2023/12/28 05:48:32;;;;;;;0.40;0.40;;;10.40;99.90;;;;;;5116865;27;20131;-77
2023/12/28 05:50:58;;;;;;;2.80;1.17;;;10.40;99.90;;;;;;5133431;27;20124;-79
2023/12/28 05:53:25;;;;;;;0.60;0.60;;;10.40;99.90;;;;;;5131574;27;20042;-78
2023/12/28 05:55:50;;;;;;;0.40;0.40;;;10.40;99.90;;;;;;5131430;27;20446;-82
2023/12/28 05:58:16;;;;;;;0.30;0.30;;;10.40;99.90;;;;;;5139557;27;20118;-82
2023/12/28 06:00:42;;;;;;;0.30;0.30;;;10.40;99.90;;;;;;5138290;27;20125;-81
2023/12/28 06:03:08;;;;;;;0.30;0.30;;;10.40;99.90;;;;;;5136224;27;20502;-82
2023/12/28 06:05:34;;;;;;;1.55;0.95;;;10.40;99.90;;;;;;5134157;27;20046;-82
2023/12/28 06:08:00;;;;;;;0.75;0.75;;;10.40;99.90;;;;;;5131367;27;20039;-81
2023/12/28 06:10:27;;;;;;;0.35;0.35;;;10.40;99.90;;;;;;5114262;27;20043;-81
2023/12/28 06:12:52;;;;;;;2.20;1.35;;;10.30;99.90;;;;;;5115441;27;20492;-82
2023/12/28 06:15:18;;;;;;;0.40;0.40;;;10.20;99.90;;;;;;5141571;27;20039;-81
2023/12/28 06:17:44;;;;;;;0.40;0.40;;;10.20;99.90;;;;;;5134612;27;20042;-80
2023/12/28 06:20:10;;;;;;;5.38;3.40;;;10.20;99.90;;;;;;5113134;27;20031;-82
2023/12/28 06:22:39;;;;;;;;;;;10.30;99.90;;;;;;5134025;27;20043;-81
2023/12/28 06:25:05;;;;;;;0.40;0.40;;;10.30;99.90;;;;;;5145068;27;19915;-81
2023/12/28 06:27:31;;;;;;;0.90;0.88;;;10.20;99.90;;;;;;5114314;27;20059;-82
2023/12/28 06:29:56;;;;;;;1.23;0.63;;;10.20;99.90;;;;;;5132982;27;20043;-82
2023/12/28 06:32:23;;;;;;;0.43;0.43;;;10.20;99.90;;;;;;5136622;27;20298;-81
2023/12/28 06:34:49;;;;;;;0.40;0.40;;;10.30;99.90;;;;;;5139081;27;20031;-81
2023/12/28 06:37:15;;;;;;;0.30;0.30;;;10.30;99.90;;;;;;5096256;27;20096;-82
2023/12/28 06:39:41;;;;;;;0.85;0.85;;;10.30;99.90;;;;;;5113795;27;20042;-82
2023/12/28 06:42:09;;;;;;;0.40;0.40;;;10.30;99.90;;;;;;5133473;27;20495;-81
2023/12/28 06:44:34;;;;;;;1.02;1.02;;;10.30;99.90;;;;;;5094255;27;20038;-82
2023/12/28 06:47:00;;;;;;;0.30;0.30;;;10.30;99.90;;;;;;5113612;27;20122;-81
2023/12/28 06:49:26;;;;;;;0.30;0.30;;;10.40;99.90;;;;;;5112056;27;20503;-82
2023/12/28 06:51:51;;;;;;;0.40;0.40;;;10.40;99.90;;;;;;5136349;27;20089;-82
2023/12/28 06:54:17;;;;;;;0.40;0.40;;;10.40;99.90;;;;;;5113411;27;20499;-81
2023/12/28 06:56:46;;;;;;;0.57;0.57;;;10.40;99.90;;;;;;5116256;27;20027;-82
2023/12/28 06:59:12;;;;;;;4.80;2.15;;;10.50;99.90;;;;;;5129379;27;20034;-81
2023/12/28 07:01:48;;;;;;;0.50;0.50;;;10.40;99.90;;;;;;5129498;27;20124;-81
2023/12/28 07:04:13;;;;;;;0.40;0.40;;;10.50;99.90;;;;;;5129770;27;20243;-82
2023/12/28 07:06:39;;;;;;;1.23;1.20;;;10.50;99.90;;;;;;5129728;27;20555;-81
2023/12/28 07:09:05;;;;;;;0.30;0.30;;;10.40;99.90;;;;;;5132128;27;20055;-81
2023/12/28 07:11:31;;;;;;;0.40;0.40;;;10.40;99.90;;;;;;5129358;27;20042;-81
2023/12/28 07:13:56;;;;;;;0.40;0.40;;;10.40;99.90;;;;;;5130365;27;20046;-82
2023/12/28 07:16:22;;;;;;;0.32;0.32;;;10.40;99.90;;;;;;5130339;27;20039;-81
2023/12/28 07:18:48;;;;;;;0.30;0.30;;;10.40;99.90;;;;;;5129652;27;20074;-78
2023/12/28 07:21:14;;;;;;;0.52;0.52;;;10.50;99.90;;;;;;5120237;27;20406;-79
2023/12/28 07:23:39;;;;;;;1.05;1.05;;;10.50;99.90;;;;;;5109679;27;20075;-79
2023/12/28 07:26:05;;;;;;;0.95;0.95;;;10.60;99.90;;;;;;5131288;27;20118;-77
2023/12/28 07:28:31;;;;;;;0.30;0.30;;;10.50;99.90;;;;;;5110429;27;20038;-77
2023/12/28 07:30:58;;;;;;;0.57;0.57;;;10.60;99.90;;;;;;5110989;27;20039;-77
2023/12/28 07:33:24;;;;;;;0.30;0.30;;;10.60;99.90;;;;;;5137383;27;20130;-77
2023/12/28 07:35:49;;;;;;;0.50;0.50;;;10.60;99.90;;;;;;5127275;27;20583;-79
2023/12/28 07:38:15;;;;;;;0.40;0.40;;;10.60;99.90;;;;;;5133906;27;20034;-78
2023/12/28 07:40:41;;;;;;;1.10;1.05;;;10.50;99.90;;;;;;5123694;27;20040;-77
2023/12/28 07:43:07;;;;;;;0.75;0.75;;;10.50;99.90;;;;;;5131971;27;20035;-81
2023/12/28 07:45:33;;;;;;;2.05;1.95;;;10.50;99.90;;;;;;5134224;27;20046;-81
2023/12/28 07:48:02;;;;;;;0.52;0.52;;;10.60;99.90;;;;;;5125727;27;20539;-80
2023/12/28 07:50:27;;;;;;;1.73;1.60;;;10.60;99.90;;;;;;5122681;27;20383;-78
2023/12/28 07:52:53;;;;;;;0.40;0.40;;;10.50;99.90;;;;;;5115181;27;20102;-79
2023/12/28 07:55:19;;;;;;;0.40;0.40;;;10.50;99.90;;;;;;5122250;27;20034;-78
2023/12/28 07:57:45;;;;;;;0.50;0.50;;;10.50;99.90;;;;;;5133108;27;20068;-79
2023/12/28 08:00:11;;;;;;;;;;;10.50;99.90;;;;;;5137708;27;20095;-81
2023/12/28 08:02:37;;;;;;;0.88;0.88;;;10.50;99.90;;;;;;5116033;27;19919;-83
2023/12/28 08:05:04;;;;;;;0.40;0.40;;;10.60;99.90;;;;;;5128702;27;20058;-82
2023/12/28 08:07:30;;;;;;;0.40;0.40;;;10.60;99.90;;;;;;5142242;27;20053;-83
2023/12/28 08:09:56;;;;;;;0.40;0.40;;;10.70;99.90;;;;;;5123891;27;20488;-79
2023/12/28 08:12:21;;;;;;;0.50;0.50;;;10.70;99.90;;;;;;5139437;27;20035;-83
2023/12/28 08:14:47;;;;;;;1.33;1.33;;;10.70;99.90;;;;;;5095665;27;20536;-80
2023/12/28 08:17:13;;;;;;;2.00;1.00;;;10.80;99.90;;;;;;5130472;27;20035;-79
2023/12/28 08:19:39;;;;;;;0.28;0.28;;;10.90;99.90;;;;;;5105175;27;20076;-82
2023/12/28 08:22:04;;;;;;;0.30;0.30;;;10.90;99.90;;;;;;5126311;27;20483;-80
2023/12/28 08:24:33;;;;;;;0.30;0.30;;;10.90;99.90;;;;;;5125883;27;20035;-83
2023/12/28 08:26:59;;;;;;;0.40;0.40;;;10.90;99.90;;;;;;5124752;27;20051;-80
2023/12/28 08:29:26;;;;;;;9.18;1.67;;;10.90;99.90;;;;;;5107466;27;20046;-79
2023/12/28 08:31:52;;;;;;;0.40;0.40;;;10.90;99.90;;;;;;5126824;27;20127;-79
2023/12/28 08:34:18;;;;;;;0.98;0.98;;;10.90;99.90;;;;;;5129871;27;20081;-80
2023/12/28 08:36:44;;;;;;;0.40;0.40;;;10.70;99.90;;;;;;5121442;27;20032;-78
2023/12/28 08:39:09;;;;;;;0.30;0.30;;;10.90;99.90;;;;;;5107739;28;20472;-80
2023/12/28 08:41:35;;;;;;;0.40;0.40;;;10.90;99.90;;;;;;5128264;27;20043;-83
2023/12/28 08:44:01;;;;;;;1.70;0.82;;;11.00;99.90;;;;;;5134449;27;20043;-81
2023/12/28 08:46:27;;;;;;;0.50;0.50;;;11.00;99.90;;;;;;5130612;28;20043;-81
2023/12/28 08:48:53;;;;;;;0.30;0.30;;;11.10;99.90;;;;;;5131246;27;20047;-79
2023/12/28 08:51:19;;;;;;;1.15;1.05;;;11.10;99.90;;;;;;5130861;27;20038;-82
2023/12/28 08:53:44;;;;;;;0.35;0.35;;;11.10;99.90;;;;;;5136515;27;20483;-80
2023/12/28 08:56:20;;;;;;;0.85;0.80;;;11.00;99.90;;;;;;5100012;27;20117;-82
2023/12/28 08:58:54;;;;;;;0.80;0.75;;;11.10;99.90;;;;;;5102955;28;20050;-80
2023/12/28 09:01:21;;;;;;;0.30;0.30;;;11.00;99.90;;;;;;5130983;27;20546;-82
2023/12/28 09:03:50;;;;;;;0.30;0.30;;;11.00;99.90;;;;;;5133156;27;20484;-82
2023/12/28 09:06:16;;;;;;;0.30;0.30;;;11.00;99.90;;;;;;5134416;27;20487;-81
2023/12/28 09:08:43;;;;;;;;;;;11.00;99.90;;;;;;5138914;27;20049;-79
2023/12/28 09:11:11;;;;;;;1.20;1.20;;;11.00;99.90;;;;;;5136494;27;19919;-80
2023/12/28 09:13:38;;;;;;;1.30;1.23;;;11.00;99.90;;;;;;5138910;27;20035;-82
2023/12/28 09:16:05;;;;;;;0.40;0.40;;;11.10;99.90;;;;;;5135033;27;20168;-82
2023/12/28 09:18:30;;;;;;;0.30;0.30;;;11.10;99.90;;;;;;5123556;27;20096;-80
2023/12/28 09:20:56;;;;;;;0.52;0.52;;;11.10;99.90;;;;;;5097815;27;20293;-79
2023/12/28 09:23:22;;;;;;;0.30;0.30;;;11.10;99.90;;;;;;5135511;27;20492;-79
2023/12/28 09:25:49;;;;;;;0.65;0.65;;;11.10;99.90;;;;;;5116134;27;20039;-81
2023/12/28 09:28:15;;;;;;;0.90;0.90;;;11.20;99.90;;;;;;5136128;27;20051;-80
2023/12/28 09:30:41;;;;;;;2.63;2.53;;;11.10;99.90;;;;;;5135809;27;20126;-80
2023/12/28 09:33:08;;;;;;;0.40;0.40;;;11.20;99.90;;;;;;5133465;27;20550;-81
2023/12/28 09:35:37;;;;;;;0.95;0.95;;;11.20;99.90;;;;;;5138813;27;20046;-80
2023/12/28 09:38:03;;;;;;;;;;;11.20;99.90;;;;;;5137488;27;20129;-79
2023/12/28 09:40:29;;;;;;;0.68;0.68;;;11.20;99.90;;;;;;5139852;27;19974;-84
2023/12/28 09:43:11;;;;;;;0.40;0.40;;;11.20;99.90;;;;;;5140072;27;20039;-82
2023/12/28 09:45:37;;;;;;;0.52;0.52;;;11.20;99.90;;;;;;5135230;27;20039;-82
2023/12/28 09:48:04;;;;;;;0.80;0.80;;;11.20;99.90;;;;;;5127968;27;20441;-82
2023/12/28 09:50:30;;;;;;;0.30;0.30;;;11.20;99.90;;;;;;5141431;27;20039;-79
2023/12/28 09:52:56;;;;;;;0.70;0.70;;;11.10;99.90;;;;;;5136997;27;20564;-78
2023/12/28 09:55:22;;;;;;;;;;;11.10;99.90;;;;;;5135235;27;20358;-79
2023/12/28 09:57:48;;;;;;;0.30;0.30;;;11.10;99.90;;;;;;5135657;27;20007;-82
2023/12/28 10:00:14;;;;;;;0.40;0.40;;;11.10;99.90;;;;;;5121014;27;20031;-80
2023/12/28 10:02:44;;;;;;;1.98;0.80;;;11.00;99.90;;;;;;5130090;27;20035;-85
2023/12/28 10:05:15;;;;;;;0.50;0.50;;;11.10;99.90;;;;;;5128254;27;20039;-80
2023/12/28 10:07:43;;;;;;;0.40;0.40;;;11.00;99.90;;;;;;5128522;27;20050;-81
2023/12/28 10:10:09;;;;;;;0.30;0.30;;;11.00;99.90;;;;;;5097358;27;20196;-81
2023/12/28 10:12:35;;;;;;;;;;;11.00;99.90;;;;;;5114250;27;20065;-79
2023/12/28 10:15:01;;;;;;;0.45;0.45;;;11.00;99.90;;;;;;5137904;27;19915;-80
2023/12/28 10:17:26;;;;;;;0.40;0.40;;;11.00;99.90;;;;;;5111687;27;20038;-79
2023/12/28 10:19:53;;;;;;;0.40;0.40;;;11.00;99.90;;;;;;5132637;27;20043;-80
2023/12/28 10:22:19;;;;;;;0.40;0.40;;;11.10;99.90;;;;;;5113006;27;20046;-79
2023/12/28 10:24:45;;;;;;;1.52;1.15;;;11.10;99.90;;;;;;5129101;27;20126;-79
2023/12/28 10:27:13;;;;;;;0.30;0.30;;;11.10;99.90;;;;;;5131998;27;20043;-81
2023/12/28 10:29:39;;;;;;;0.65;0.50;;;11.10;99.90;;;;;;5130079;27;20411;-78
2023/12/28 10:32:05;;;;;;;0.30;0.30;;;11.10;99.90;;;;;;5124686;27;20043;-81
2023/12/28 10:34:31;;;;;;;;;;;11.10;99.90;;;;;;5129403;27;20040;-82
2023/12/28 10:36:59;;;;;;;0.35;0.35;;;11.10;99.90;;;;;;5129071;27;19919;-84
2023/12/28 10:39:25;;;;;;;0.30;0.30;;;11.20;99.90;;;;;;5131740;27;20039;-82
2023/12/28 10:41:55;;;;;;;0.40;0.40;;;11.10;99.90;;;;;;5139260;27;20118;-81
2023/12/28 10:44:23;;;;;;;0.47;0.47;;;11.10;99.90;;;;;;5132251;27;20040;-81
2023/12/28 10:46:55;;;;;;;0.68;0.68;;;11.20;99.90;;;;;;5127920;27;20059;-83
2023/12/28 10:49:23;;;;;;;3.53;0.65;;;11.20;99.90;;;;;;5133561;27;20042;-82
2023/12/28 10:51:52;;;;;;;0.35;0.35;;;11.20;99.90;;;;;;5125620;27;20184;-78
2023/12/28 10:54:41;;;;;;;0.40;0.40;;;11.30;99.90;;;;;;5133602;27;20046;-81
2023/12/28 10:57:17;;;;;;;1.00;1.00;;;11.30;99.90;;;;;;5133661;27;20031;-77
2023/12/28 11:00:02;;;;;;;0.73;0.73;;;11.30;99.90;;;;;;5137523;27;20035;-80
2023/12/28 11:02:44;;;;;;;3.50;2.05;;;11.20;99.90;;;;;;5126510;27;20119;-83
2023/12/28 11:05:11;;;;;;;0.30;0.30;;;11.30;99.90;;;;;;5127480;27;20776;-82
2023/12/28 11:07:40;;;;;;;0.50;0.50;;;11.20;99.90;;;;;;5129438;27;20043;-79
2023/12/28 11:10:09;;;;;;;0.40;0.40;;;11.20;99.90;;;;;;5137487;27;20074;-81
2023/12/28 11:12:38;;;;;;;0.98;0.93;;;11.20;99.90;;;;;;5133677;27;20046;-79
2023/12/28 11:15:05;;;;;;;0.60;0.60;;;11.10;99.90;;;;;;5113538;27;20039;-82
2023/12/28 11:17:33;;;;;;;0.90;0.90;;;11.10;99.90;;;;;;5111880;27;20035;-79
2023/12/28 11:20:00;;;;;;;0.30;0.30;;;11.10;99.90;;;;;;5125076;27;20042;-81
2023/12/28 11:22:26;;;;;;;0.30;0.30;;;11.10;99.90;;;;;;5088621;27;20055;-82
2023/12/28 11:24:56;;;;;;;;;;;11.10;99.90;;;;;;5133440;27;20070;-80
2023/12/28 11:27:23;;;;;;;0.35;0.35;;;11.20;99.90;;;;;;5105884;27;20003;-80
2023/12/28 11:29:50;;;;;;;0.30;0.30;;;11.10;99.90;;;;;;5098536;27;20043;-81
2023/12/28 11:32:16;;;;;;;0.40;0.40;;;11.20;99.90;;;;;;5108990;27;20076;-78
2023/12/28 11:34:42;;;;;;;0.40;0.40;;;11.20;99.90;;;;;;5080494;27;20080;-78
2023/12/28 11:37:12;;;;;;;0.38;0.38;;;11.20;99.90;;;;;;5127036;27;20035;-81
2023/12/28 11:39:43;;;;;;;0.60;0.60;;;11.20;99.90;;;;;;5125168;27;20134;-80
2023/12/28 11:42:09;;;;;;;0.50;0.50;;;11.20;99.90;;;;;;5097579;27;20073;-80
2023/12/28 11:44:43;;;;;;;0.52;0.52;;;11.20;99.90;;;;;;5104685;27;20070;-81
2023/12/28 11:47:23;;;;;;;0.50;0.50;;;11.30;99.90;;;;;;5123432;27;20111;-83
2023/12/28 11:49:54;;;;;;;0.50;0.50;;;11.20;99.90;;;;;;5126485;27;20031;-81
2023/12/28 11:52:31;;;;;;;2.95;1.05;;;11.20;99.90;;;;;;5099821;27;20532;-80
2023/12/28 11:54:57;;;;;;;0.30;0.30;;;11.10;99.90;;;;;;5126088;27;20503;-83
2023/12/28 11:57:24;;;;;;;0.30;0.30;;;11.10;99.90;;;;;;5123342;27;20034;-81
2023/12/28 11:59:59;;;;;;;0.40;0.40;;;11.00;99.90;;;;;;5126792;27;20031;-80
2023/12/28 12:02:26;;;;;;;0.40;0.40;;;11.00;99.90;;;;;;5117112;27;20104;-79
2023/12/28 12:04:53;;;;;;;0.30;0.30;;;11.00;99.90;;;;;;5124913;27;20054;-79
2023/12/28 12:07:20;;;;;;;0.30;0.30;;;11.00;99.90;;;;;;5121975;27;20413;-79
2023/12/28 12:09:46;;;;;;;0.30;0.30;;;11.00;99.90;;;;;;5114432;27;20043;-80
2023/12/28 12:12:12;;;;;;;0.50;0.50;;;11.10;99.90;;;;;;5113228;27;20043;-81
2023/12/28 12:14:38;;;;;;;1.48;1.38;;;11.10;99.90;;;;;;5111765;27;20038;-79
2023/12/28 12:17:04;;;;;;;0.40;0.40;;;11.00;99.90;;;;;;5084226;27;20387;-82
2023/12/28 12:19:30;;;;;;;;;;;11.00;99.90;;;;;;5077632;27;20031;-79
2023/12/28 12:21:56;;;;;;;0.77;0.55;;;11.00;99.90;;;;;;5122843;27;20000;-79
2023/12/28 12:24:28;;;;;;;0.30;0.30;;;10.90;99.90;;;;;;5106338;27;20085;-80
2023/12/28 12:26:54;;;;;;;0.55;0.55;;;10.80;99.90;;;;;;5119708;27;20123;-78
2023/12/28 12:29:20;;;;;;;0.47;0.47;;;10.70;99.90;;;;;;5123815;27;20484;-80
2023/12/28 12:31:48;;;;;;;0.30;0.30;;;10.70;99.90;;;;;;5117418;27;20123;-80
2023/12/28 12:34:17;;;;;;;0.45;0.45;;;10.70;99.90;;;;;;5128976;27;20134;-79
2023/12/28 12:36:44;;;;;;;0.55;0.55;;;10.70;99.90;;;;;;5126559;27;20115;-79
2023/12/28 12:39:13;;;;;;;0.60;0.60;;;10.70;99.90;;;;;;5115852;28;20503;-80
2023/12/28 12:41:39;;;;;;;0.63;0.63;;;10.80;99.90;;;;;;5126460;27;20045;-81
2023/12/28 12:44:05;;;;;;;0.30;0.30;;;10.80;99.90;;;;;;5125615;27;20496;-79
2023/12/28 12:46:31;;;;;;;5.07;1.60;;;10.90;99.90;;;;;;5133545;27;20516;-79
2023/12/28 12:48:57;;;;;;;;;;;10.90;99.90;;;;;;5124921;27;20043;-78
2023/12/28 12:51:24;;;;;;;0.40;0.40;;;11.00;99.90;;;;;;5129366;27;19972;-79
2023/12/28 12:53:50;;;;;;;0.30;0.30;;;11.00;99.90;;;;;;5111535;27;20281;-78